Latest Weather Observations for Deniliquin

IDN60801

Issued at 1:06 pm EDT Tuesday 23 December 2014 (issued every 30 minutes, with the page automatically refreshed every 10 minutes)

About weather observations | Map of weather stations | Latest weather observations for NSW | Other Formats
Station Details ID: 074258 Name: DENILIQUIN AIRPORT AWS Lat: -35.56 Lon: 144.95 Height: 94.0 m
Data from the previous 72 hours. | See also: Recent months at Deniliquin
Date/Time
EDT
Temp
°C
App
Temp
°C
Dew
Point
Rel
Hum
%
Delta-T
°C
Wind Press
QNH
hPa
Press
MSL
hPa
Rain
since 9 am
mm
Dir
 
Spd
km/h
Gust
km/h
Spd
kts
Gust
kts
23/01:00pm 32.6 27.8 8.8 23 13.4 NNW 24 35 13 19 1008.1 1007.7 0.0
23/12:30pm 31.8 27.8 10.5 27 12.3 NNW 22 32 12 17 1008.3 1007.9 0.0
23/12:00pm 30.8 26.3 10.2 28 11.8 NNW 24 41 13 22 1008.6 1008.2 0.0
23/11:30am 30.7 26.0 10.6 29 11.6 NW 26 37 14 20 1008.9 1008.5 0.0
23/11:00am 29.5 25.5 10.6 31 10.8 NNW 22 43 12 23 1009.0 1008.6 0.0
23/10:30am 27.3 25.2 11.3 37 9.2 NNE 13 20 7 11 1009.5 1009.1 0.0
23/10:00am 25.7 23.0 11.8 42 8.0 NE 17 22 9 12 1009.9 1009.5 0.0
23/09:30am 25.5 23.8 12.4 44 7.6 NE 13 19 7 10 1010.1 1009.7 0.0
23/09:00am 24.2 22.1 12.5 48 6.7 NE 15 20 8 11 1010.3 1009.9 0.0
23/08:30am 23.6 20.6 12.6 50 6.3 NE 20 26 11 14 1010.3 1009.9 0.0
23/08:00am 23.1 20.2 12.4 51 6.1 ENE 19 22 10 12 1009.9 1009.5 0.0
23/07:30am 22.2 20.9 12.5 54 5.5 ENE 11 13 6 7 1009.9 1009.5 0.0
23/07:00am 21.4 20.4 13.3 60 4.7 ENE 11 13 6 7 1009.6 1009.2 0.0
23/06:30am 19.7 19.1 13.4 67 3.6 ENE 9 11 5 6 1009.4 1009.0 0.0
23/06:00am 20.5 20.7 14.2 67 3.7 E 6 7 3 4 1009.4 1009.0 0.0
23/05:00am 21.3 19.8 13.0 59 4.8 WSW 13 17 7 9 1009.2 1008.8 0.0
23/04:30am 22.7 19.4 10.8 47 6.6 W 19 24 10 13 1009.6 1009.2 0.0
23/04:00am 23.2 18.4 10.3 44 7.1 SW 26 39 14 21 1008.2 1007.8 0.0
23/03:00am 24.9 20.8 8.0 34 9.1 W 19 22 10 12 1007.6 1007.2 0.0
23/02:30am 25.3 22.3 7.9 33 9.3 W 13 19 7 10 1007.6 1007.2 0.0
23/02:00am 26.4 22.8 6.9 29 10.3 WNW 15 22 8 12 1007.6 1007.2 0.0
23/01:30am 26.9 21.2 6.9 28 10.6 WNW 26 37 14 20 1007.6 1007.2 0.0
23/01:00am 26.5 22.2 7.0 29 10.4 NW 19 28 10 15 1007.6 1007.2 0.0
23/12:30am 27.0 22.1 6.9 28 10.7 W 22 32 12 17 1007.4 1007.0 0.0
23/12:00am 27.3 22.2 6.1 26 11.1 WNW 22 33 12 18 1007.2 1006.9 0.0
 
Date/Time
EDT
Temp
°C
App
Temp
°C
Dew
Point
Rel
Hum
%
Delta-T
°C
Wind Press
QNH
hPa
Press
MSL
hPa
Rain
since 9 am
mm
Dir
 
Spd
km/h
Gust
km/h
Spd
kts
Gust
kts
22/11:30pm 26.6 22.9 8.1 31 10.0 WNW 17 20 9 11 1007.4 1007.0 0.0
22/11:00pm 24.4 23.2 12.7 48 6.8 NW 11 17 6 9 1007.2 1006.8 0.0
22/10:30pm 24.0 23.5 12.6 49 6.6 S 7 15 4 8 1007.0 1006.6 0.0
22/10:00pm 25.6 25.2 12.4 43 7.7 E 6 9 3 5 1006.9 1006.5 0.0
22/09:30pm 26.3 24.2 12.4 42 8.1 ENE 15 20 8 11 1006.7 1006.3 0.0
22/09:00pm 26.9 22.5 11.8 39 8.7 E 26 43 14 23 1006.5 1006.1 0.0
22/08:30pm 27.4 21.6 11.4 37 9.2 E 33 46 18 25 1005.7 1005.3 0.0
22/08:00pm 28.5 22.0 10.2 32 10.4 E 35 46 19 25 1005.6 1005.2 0.0
22/07:30pm 29.7 23.4 9.8 29 11.2 E 33 44 18 24 1005.2 1004.8 0.0
22/07:20pm 30.4 25.1 9.8 28 11.7 ESE 28 44 15 24 1005.1 1004.7 0.0
22/07:00pm 31.1 28.0 8.8 25 12.5 ESE 15 26 8 14 1005.1 1004.7 0.0
22/06:30pm 32.0 26.7 8.3 23 13.3 ENE 26 33 14 18 1005.0 1004.6 0.0
22/06:00pm 32.7 28.7 6.8 20 14.2 ENE 17 24 9 13 1004.5 1004.2 0.0
22/05:30pm 33.0 28.7 7.1 20 14.2 ENE 19 24 10 13 1004.7 1004.3 0.0
22/05:00pm 33.1 28.8 7.1 20 14.3 E 19 24 10 13 1004.9 1004.5 0.0
22/04:30pm 33.2 28.6 6.5 19 14.5 ENE 20 30 11 16 1005.4 1005.0 0.0
22/04:00pm 33.5 28.4 5.9 18 15.0 NE 22 32 12 17 1006.1 1005.7 0.0
22/03:30pm 32.7 29.9 6.8 20 14.1 SE 11 19 6 10 1006.3 1005.9 0.0
22/03:00pm 33.0 29.9 7.1 20 14.3 S 13 17 7 9 1006.5 1006.1 0.0
22/02:30pm 33.2 29.8 5.7 18 14.8 ESE 13 22 7 12 1007.2 1006.8 0.0
22/02:17pm 31.7 25.8 6.0 20 13.8 NE 26 59 14 32 1007.5 1007.1 0.0
22/02:15pm 31.3 25.5 6.4 21 13.4 NE 26 59 14 32 1007.6 1007.2 0.0
22/02:00pm 35.2 30.8 4.7 15 16.4 NNE 17 22 9 12 1007.5 1007.1 0.0
22/01:30pm 34.9 31.2 4.4 15 16.2 N 13 19 7 10 1008.0 1007.6 0.0
22/01:00pm 35.3 30.5 4.8 15 16.4 N 19 32 10 17 1008.2 1007.8 0.0
22/12:30pm 36.6 31.2 1.4 11 18.0 NNE 19 33 10 18 1008.6 1008.2 0.0
22/12:00pm 36.6 30.8 0.1 10 18.3 NE 20 32 11 17 1008.8 1008.4 0.0
22/11:30am 36.0 29.6 0.9 11 17.8 NE 24 41 13 22 1009.3 1008.9 0.0
22/11:00am 34.4 29.1 3.1 14 16.3 NE 20 28 11 15 1009.9 1009.5 0.0
22/10:30am 32.5 27.2 5.1 18 14.5 ENE 22 30 12 16 1010.4 1010.0 0.0
22/10:00am 31.6 26.9 5.9 20 13.8 ENE 20 28 11 15 1010.6 1010.3 0.0
22/09:30am 29.7 25.1 6.4 23 12.4 E 20 30 11 16 1010.7 1010.4 0.0
22/09:00am 28.8 24.4 7.4 26 11.6 E 20 28 11 15 1010.7 1010.4 0.0
22/08:30am 26.8 22.6 7.3 29 10.4 E 19 22 10 12 1010.8 1010.5 0.0
22/08:00am 25.1 20.9 7.3 32 9.4 E 19 22 10 12 1010.6 1010.3 0.0
22/07:30am 23.5 19.9 6.7 34 8.7 E 15 20 8 11 1010.6 1010.3 0.0
22/07:00am 22.1 19.0 7.1 38 7.8 ESE 13 17 7 9 1010.3 1009.9 0.0
22/06:30am 18.8 15.6 6.9 46 6.0 SE 13 15 7 8 1010.1 1009.7 0.0
22/06:00am 19.7 16.8 6.4 42 6.7 ESE 11 13 6 7 1010.0 1009.6 0.0
22/05:30am 20.2 17.2 6.2 40 7.0 ENE 11 13 6 7 1009.5 1009.1 0.0
22/05:00am 20.0 17.5 6.4 41 6.9 E 9 13 5 7 1009.4 1009.0 0.0
22/04:30am 20.8 18.2 6.0 38 7.4 ENE 9 11 5 6 1009.3 1008.9 0.0
22/04:00am 20.6 18.0 6.2 39 7.3 E 9 11 5 6 1009.5 1009.1 0.0
22/03:30am 20.5 17.8 5.7 38 7.4 E 9 11 5 6 1009.9 1009.5 0.0
22/03:00am 21.9 18.7 5.3 34 8.3 NE 11 13 6 7 1009.9 1009.5 0.0
22/02:30am 21.8 18.8 6.1 36 8.0 ENE 11 13 6 7 1010.0 1009.6 0.0
22/02:00am 22.2 19.2 6.0 35 8.2 ENE 11 13 6 7 1010.3 1009.9 0.0
22/01:30am 22.8 20.2 6.1 34 8.5 E 9 9 5 5 1010.5 1010.2 0.0
22/01:00am 23.4 20.7 5.8 32 9.0 ENE 9 11 5 6 1010.7 1010.4 0.0
22/12:30am 23.2 20.2 6.0 33 8.8 E 11 15 6 8 1011.0 1010.7 0.0
22/12:00am 22.7 20.2 6.5 35 8.3 E 9 11 5 6 1011.2 1010.9 0.0
 
Date/Time
EDT
Temp
°C
App
Temp
°C
Dew
Point
Rel
Hum
%
Delta-T
°C
Wind Press
QNH
hPa
Press
MSL
hPa
Rain
since 9 am
mm
Dir
 
Spd
km/h
Gust
km/h
Spd
kts
Gust
kts
21/11:30pm 23.5 20.9 6.3 33 8.8 E 9 9 5 5 1011.3 1011.0 0.0
21/11:00pm 23.4 20.5 6.7 34 8.6 E 11 13 6 7 1011.5 1011.2 0.0
21/10:30pm 24.8 22.2 6.1 30 9.7 E 9 9 5 5 1011.7 1011.4 0.0
21/10:00pm 24.8 22.2 6.1 30 9.7 E 9 11 5 6 1011.7 1011.4 0.0
21/09:30pm 26.8 24.4 5.1 25 11.1 ESE 7 9 4 5 1011.5 1011.2 0.0
21/09:00pm 27.6 25.1 4.6 23 11.8 SSE 7 9 4 5 1011.4 1011.1 0.0
21/08:30pm 29.2 26.2 3.9 20 12.9 SSE 9 11 5 6 1011.2 1010.9 0.0
21/08:00pm 30.9 27.3 3.0 17 14.2 S 11 11 6 6 1010.9 1010.6 0.0
21/07:30pm 32.1 28.0 2.2 15 15.1 SSW 13 17 7 9 1010.7 1010.4 0.0
21/07:00pm 32.7 27.6 0.7 13 15.8 S 17 20 9 11 1010.3 1009.9 0.0
21/06:30pm 33.0 30.0 0.9 13 15.9 ESE 6 9 3 5 1010.4 1010.0 0.0
21/06:00pm 33.2 28.7 0.0 12 16.3 SSE 13 19 7 10 1010.4 1010.0 0.0
21/05:30pm 33.9 29.5 0.5 12 16.6 SW 13 24 7 13 1010.5 1010.2 0.0
21/05:00pm 34.0 31.0 0.6 12 16.6 SSE 6 11 3 6 1010.7 1010.4 0.0
21/04:30pm 34.3 30.0 0.8 12 16.7 WNW 13 24 7 13 1011.2 1010.9 0.0
21/04:00pm 34.2 30.4 1.9 13 16.4 SSW 11 19 6 10 1011.4 1011.1 0.0
21/03:30pm 33.5 29.2 1.3 13 16.1 SW 13 20 7 11 1011.8 1011.5 0.0
21/03:00pm 32.9 29.6 -0.2 12 16.1 NE 7 15 4 8 1012.1 1011.8 0.0
21/02:30pm 33.1 28.4 1.0 13 16.0 W 15 26 8 14 1012.4 1012.1 0.0
21/02:00pm 32.0 28.3 2.1 15 15.1 WNW 11 19 6 10 1012.9 1012.6 0.0
21/01:30pm 31.8 27.4 2.9 16 14.7 WNW 15 28 8 15 1013.4 1013.1 0.0
21/01:00pm 31.5 27.2 3.5 17 14.4 NW 15 24 8 13 1013.8 1013.5 0.0
21/12:30pm 31.1 28.1 4.0 18 14.0 WNW 9 15 5 8 1013.9 1013.6 0.0
21/12:00pm 30.4 27.8 4.2 19 13.5 SW 7 15 4 8 1014.2 1013.9 0.0
21/11:30am 30.2 26.9 4.8 20 13.2 ENE 11 20 6 11 1014.4 1014.1 0.0
21/11:00am 29.3 26.2 5.4 22 12.5 NNW 11 20 6 11 1014.4 1014.1 0.0
21/10:30am 28.8 25.2 5.0 22 12.3 E 13 22 7 12 1014.5 1014.2 0.0
21/10:00am 27.3 23.9 6.1 26 11.1 NE 13 19 7 10 1014.8 1014.5 0.0
21/09:30am 26.6 24.1 8.1 31 10.0 ENE 11 15 6 8 1015.0 1014.7 0.0
21/09:00am 25.3 22.5 8.7 35 9.0 E 13 17 7 9 1015.0 1014.7 0.0
21/08:30am 23.3 20.1 8.6 39 7.9 ENE 15 20 8 11 1014.9 1014.6 0.0
21/08:00am 22.0 19.4 7.8 40 7.4 E 11 15 6 8 1014.9 1014.6 0.0
21/07:30am 20.0 17.8 7.7 45 6.3 SE 9 11 5 6 1015.1 1014.8 0.0
21/07:00am 17.6 15.9 8.5 55 4.7 SE 7 9 4 5 1014.4 1014.1 0.0
21/06:30am 15.7 13.5 8.0 60 3.9 ESE 9 11 5 6 1014.1 1013.8 0.0
21/06:00am 15.2 13.0 7.7 61 3.8 ESE 9 11 5 6 1013.6 1013.3 0.0
21/05:30am 15.5 13.6 7.5 59 4.0 SE 7 9 4 5 1013.6 1013.3 0.0
21/05:00am 15.9 13.7 7.9 59 4.0 ESE 9 11 5 6 1013.4 1013.1 0.0
21/04:30am 15.4 13.5 7.4 59 4.0 ESE 7 9 4 5 1013.2 1012.9 0.0
21/04:00am 15.9 13.6 7.4 57 4.2 SE 9 11 5 6 1013.3 1013.0 0.0
21/03:30am 16.9 14.3 7.8 55 4.6 SE 11 13 6 7 1013.4 1013.1 0.0
21/03:00am 17.2 14.5 7.5 53 4.9 SE 11 13 6 7 1013.5 1013.2 0.0
21/02:30am 17.4 14.7 7.5 52 5.0 SE 11 15 6 8 1013.7 1013.4 0.0
21/02:00am 17.5 14.8 7.3 51 5.1 SSE 11 13 6 7 1014.0 1013.7 0.0
21/01:30am 17.7 15.3 7.2 50 5.3 SE 9 13 5 7 1014.2 1013.9 0.0
21/01:00am 18.0 15.2 7.1 49 5.5 SE 11 13 6 7 1014.4 1014.1 0.0
21/12:30am 17.9 14.4 7.3 50 5.4 SSE 15 19 8 10 1014.6 1014.3 0.0
21/12:00am 18.4 16.7 7.5 49 5.5 E 6 7 3 4 1014.3 1014.0 0.0
 
Date/Time
EDT
Temp
°C
App
Temp
°C
Dew
Point
Rel
Hum
%
Delta-T
°C
Wind Press
QNH
hPa
Press
MSL
hPa
Rain
since 9 am
mm
Dir
 
Spd
km/h
Gust
km/h
Spd
kts
Gust
kts
20/11:30pm 19.0 17.2 7.1 46 6.0 ESE 6 7 3 4 1014.5 1014.2 0.0
20/11:00pm 20.2 19.6 7.2 43 6.6 CALM 0 0 0 0 1014.6 1014.3 0.0
20/10:30pm 21.3 20.1 4.8 34 8.1 CALM 0 0 0 0 1014.5 1014.2 0.0
20/10:00pm 21.7 20.5 4.7 33 8.4 CALM 0 2 0 1 1014.6 1014.3 0.0
20/09:30pm 22.6 20.1 4.6 31 8.9 SSW 7 7 4 4 1014.4 1014.1 0.0
20/09:00pm 23.5 20.6 4.5 29 9.4 SSW 9 11 5 6 1014.3 1014.0 0.0
20/08:30pm 25.4 22.0 4.0 25 10.7 S 11 13 6 7 1014.0 1013.7 0.0
20/08:00pm 27.7 23.8 3.4 21 12.2 SSW 13 17 7 9 1013.9 1013.6 0.0
20/07:30pm 28.5 24.6 3.4 20 12.6 SSW 13 17 7 9 1013.6 1013.3 0.0
20/07:00pm 28.8 24.2 3.6 20 12.8 SSW 17 24 9 13 1013.4 1013.1 0.0
20/06:30pm 28.8 24.6 3.6 20 12.8 SW 15 24 8 13 1013.4 1013.1 0.0
20/06:00pm 29.0 24.4 3.8 20 12.8 SSW 17 28 9 15 1013.3 1013.0 0.0
20/05:30pm 29.0 24.4 3.8 20 12.8 SW 17 26 9 14 1013.5 1013.2 0.0
20/05:00pm 28.8 24.3 4.3 21 12.6 SW 17 24 9 13 1013.8 1013.5 0.0
20/04:30pm 29.0 24.9 4.5 21 12.6 SW 15 24 8 13 1014.1 1013.8 0.0
20/04:00pm 28.7 23.6 4.2 21 12.5 WSW 20 26 11 14 1014.6 1014.3 0.0
20/03:30pm 28.5 23.7 4.7 22 12.3 SW 19 26 10 14 1014.9 1014.6 0.0
20/03:00pm 27.8 23.8 4.8 23 11.8 S 15 26 8 14 1015.2 1014.9 0.0
20/02:30pm 27.7 22.6 4.1 22 12.0 SSW 20 32 11 17 1015.9 1015.5 0.0
20/02:00pm 26.3 21.3 3.5 23 11.3 SW 19 32 10 17 1016.3 1015.9 0.0
20/01:30pm 26.1 21.2 4.0 24 11.1 WSW 19 30 10 16 1016.6 1016.2 0.0

Other Formats:

Comma delimited format used in spreadsheet applications
http://www.bom.gov.au/fwo/IDN60801/IDN60801.95869.axf

JavaScript Object Notation format (JSON) in row-major order
http://www.bom.gov.au/fwo/IDN60801/IDN60801.95869.json